Ocean Eagle — V7VV2 — position and weather

sailwx.info

Track history (hours):
 
Tides and Currents Weather Stations Pressure Air Temp Water Temp Dewpoint Dewpoint Depression Visibility Wind Speed Wind Dir Waves Ship Positions

Ocean Eagle

Last reported at 2018-Jun-23 10:34 UTC. Time now 2018-Jul-20 12:36 UTC.
Position N 01°29' E 103°10'.
Warning: this ship's position is 27 days out of date.

Length 225 m; draft 8.6 m.

Type: Cargo ship. MMSI: 538004221.

Date/timePositionNaut miles runAvg speedWind from/ knotsBaromVisibWave heightAir tempDewpointWater temp
2018-Jun-23 10:34N 01°29' E 103°10'411.8
2018-Jun-23 10:13N 01°26' E 103°13'612.2
2018-Jun-23 09:43N 01°21' E 103°18'312.1
2018-Jun-23 09:30N 01°19' E 103°20'712.7
2018-Jun-23 08:58N 01°15' E 103°25'612.9
2018-Jun-23 08:30N 01°13' E 103°30'612.7
2018-Jun-23 08:00N 01°12' E 103°37'612.5
2018-Jun-23 07:30N 01°09' E 103°42'611.4
2018-Jun-23 07:00N 01°10' E 103°48'612.1
2018-Jun-23 06:30N 01°13' E 103°53'5 9.8
2018-Jun-23 05:59N 01°16' E 103°58'1 1.7
2018-Jun-23 05:27N 01°17' E 103°58'0 0.1
2018-Jun-23 04:45N 01°17' E 103°58'0 0.2
2018-Jun-23 04:27N 01°17' E 103°58'0 0.0
2018-Jun-23 03:46N 01°17' E 103°58'0 0.2
2018-Jun-23 03:28N 01°17' E 103°58'0 0.1
2018-Jun-23 03:00N 01°17' E 103°58'0 0.1
2018-Jun-23 02:27N 01°17' E 103°58'0 0.1
2018-Jun-23 01:55N 01°17' E 103°58'0 0.1
2018-Jun-23 01:24N 01°17' E 103°58'0 0.1
2018-Jun-23 00:39N 01°17' E 103°58'0 0.0
2018-Jun-23 00:30N 01°17' E 103°58'0 0.0
2018-Jun-23 00:00N 01°17' E 103°58'0 0.1
2018-Jun-22 23:30N 01°17' E 103°58'0 0.0
2018-Jun-22 23:00N 01°17' E 103°58'0 0.1
2018-Jun-22 22:30N 01°17' E 103°58'0 0.1
2018-Jun-22 22:00N 01°17' E 103°58'0 0.0
2018-Jun-22 21:25N 01°17' E 103°58'0 0.0
2018-Jun-22 20:55N 01°17' E 103°58'0 0.1
2018-Jun-22 20:27N 01°17' E 103°58'0 0.0
2018-Jun-22 19:57N 01°17' E 103°58'0 0.1
2018-Jun-22 19:25N 01°17' E 103°58'0 0.1
2018-Jun-22 18:57N 01°17' E 103°58'0 0.1
2018-Jun-22 18:30N 01°17' E 103°58'0 0.1
2018-Jun-22 17:46N 01°17' E 103°58'0 0.3
2018-Jun-22 17:19N 01°16' E 103°58'0 0.4
2018-Jun-22 16:59N 01°16' E 103°58'1 1.4
2018-Jun-22 16:28N 01°16' E 103°59'1 2.1
2018-Jun-22 16:00N 01°16' E 103°60'2 4.8
2018-Jun-22 15:30N 01°16' E 104°02'3 5.2
2018-Jun-22 14:59N 01°16' E 104°05'2 4.9
2018-Jun-22 14:30N 01°17' E 104°07'4 6.8
2018-Jun-22 13:59N 01°17' E 104°10'3 6.8
2018-Jun-22 13:30N 01°18' E 104°14'4 8.1
2018-Jun-22 13:00N 01°19' E 104°18'612.0
2018-Jun-22 12:30N 01°22' E 104°23'712.1
2018-Jun-22 11:56N 01°26' E 104°28'  
2018-Jun-17 18:14N 20°57' E 110°50'312.0
2018-Jun-17 18:00N 20°59' E 110°49'610.8
2018-Jun-17 17:29N 21°02' E 110°44'510.7
2018-Jun-17 17:00N 21°03' E 110°38'5 9.7
2018-Jun-17 16:30N 21°04' E 110°33'4 8.6
2018-Jun-17 16:00N 21°05' E 110°29'3 6.4
2018-Jun-17 15:30N 21°07' E 110°26'4 8.0
2018-Jun-17 15:00N 21°10' E 110°25'0 0.3
2018-Jun-17 14:30N 21°10' E 110°25'0 0.0
2018-Jun-17 13:57N 21°10' E 110°25'0 0.0
2018-Jun-17 13:30N 21°10' E 110°25'0 0.0
2018-Jun-17 13:00N 21°10' E 110°25'0 0.0
2018-Jun-17 12:30N 21°10' E 110°25'0 0.0
2018-Jun-17 12:00N 21°10' E 110°25'0 0.0
2018-Jun-17 11:30N 21°10' E 110°25'0 0.0
2018-Jun-17 11:00N 21°10' E 110°25'0 0.0
2018-Jun-17 10:30N 21°10' E 110°25'0 0.0
2018-Jun-17 10:00N 21°10' E 110°25'0 0.0
2018-Jun-17 09:30N 21°10' E 110°25'0 0.0
2018-Jun-17 09:00N 21°10' E 110°25'0 0.0
2018-Jun-17 08:30N 21°10' E 110°25'0 0.0
2018-Jun-17 07:57N 21°10' E 110°25'0 0.0
2018-Jun-17 07:30N 21°10' E 110°25'0 0.0
2018-Jun-17 06:59N 21°10' E 110°25'0 0.0
2018-Jun-17 06:29N 21°10' E 110°25'0 0.0
2018-Jun-17 05:59N 21°10' E 110°25'0 0.0
2018-Jun-17 05:29N 21°10' E 110°25'0 0.0
2018-Jun-17 04:56N 21°10' E 110°25'0 0.0
2018-Jun-17 04:29N 21°10' E 110°25'0 0.0
2018-Jun-17 03:53N 21°10' E 110°25'0 0.0
2018-Jun-17 03:29N 21°10' E 110°25'0 0.0
2018-Jun-17 02:50N 21°10' E 110°25'0 0.0
2018-Jun-17 02:29N 21°10' E 110°25'0 0.0
2018-Jun-17 01:59N 21°10' E 110°25'0 0.0
2018-Jun-17 01:29N 21°10' E 110°25'0 0.0
2018-Jun-17 00:59N 21°10' E 110°25'0 0.0
2018-Jun-17 00:26N 21°10' E 110°25'0 0.0
2018-Jun-16 23:53N 21°10' E 110°25'0 0.0
2018-Jun-16 23:29N 21°10' E 110°25'0 0.0
2018-Jun-16 22:59N 21°10' E 110°25'0 0.0
2018-Jun-16 22:26N 21°10' E 110°25'0 0.0
2018-Jun-16 21:59N 21°10' E 110°25'0 0.0
2018-Jun-16 21:29N 21°10' E 110°25'0 0.0
2018-Jun-16 20:59N 21°10' E 110°25'0 0.0
2018-Jun-16 20:29N 21°10' E 110°25'0 0.0
2018-Jun-16 19:59N 21°10' E 110°25'0 0.0
2018-Jun-16 19:29N 21°10' E 110°25'0 0.0
2018-Jun-16 18:59N 21°10' E 110°25'0 0.0
2018-Jun-16 18:23N 21°10' E 110°25'0 0.0
2018-Jun-16 17:56N 21°10' E 110°25'0 0.0
2018-Jun-16 17:29N 21°10' E 110°25'0 0.0
2018-Jun-16 16:59N 21°10' E 110°25'0 0.0
2018-Jun-16 16:26N 21°10' E 110°25'0 0.0
2018-Jun-16 15:59N 21°10' E 110°25'0 0.0
2018-Jun-16 15:29N 21°10' E 110°25'0 0.0
2018-Jun-16 14:56N 21°10' E 110°25'0 0.0
2018-Jun-16 14:29N 21°10' E 110°25'0 0.0
2018-Jun-16 13:59N 21°10' E 110°25'0 0.0
2018-Jun-16 13:26N 21°10' E 110°25'0 0.0
2018-Jun-16 12:59N 21°10' E 110°25'0 0.0
2018-Jun-16 12:29N 21°10' E 110°25'0 0.0
2018-Jun-16 11:59N 21°10' E 110°25'0 0.0
2018-Jun-16 11:26N 21°10' E 110°25'0 0.0
2018-Jun-16 10:59N 21°10' E 110°25'0 0.0
2018-Jun-16 10:29N 21°10' E 110°25'0 0.0
2018-Jun-16 09:59N 21°10' E 110°25'0 0.0
2018-Jun-16 09:29N 21°10' E 110°25'0 0.0
2018-Jun-16 08:59N 21°10' E 110°25'0 0.0
2018-Jun-16 08:17N 21°10' E 110°25'0 0.0
2018-Jun-16 07:59N 21°10' E 110°25'0 0.0
2018-Jun-16 07:29N 21°10' E 110°25'0 0.0
2018-Jun-16 06:59N 21°10' E 110°25'0 0.0
2018-Jun-16 06:29N 21°10' E 110°25'0 0.0
2018-Jun-16 05:59N 21°10' E 110°25'0 0.0
2018-Jun-16 05:29N 21°10' E 110°25'0 0.0
2018-Jun-16 04:59N 21°10' E 110°25'0 0.0
2018-Jun-16 04:29N 21°10' E 110°25'0 0.0
2018-Jun-16 03:56N 21°10' E 110°25'0 0.0
2018-Jun-16 03:26N 21°10' E 110°25'0 0.0
2018-Jun-16 02:56N 21°10' E 110°25'0 0.0
2018-Jun-16 02:26N 21°10' E 110°25'0 0.0
2018-Jun-16 01:56N 21°10' E 110°25'0 0.0
2018-Jun-16 01:29N 21°10' E 110°25'0 0.0
2018-Jun-16 00:59N 21°10' E 110°25'0 0.0
2018-Jun-16 00:29N 21°10' E 110°25'0 0.0
2018-Jun-15 23:53N 21°10' E 110°25'0 0.0
2018-Jun-15 23:26N 21°10' E 110°25'0 0.0
2018-Jun-15 22:59N 21°10' E 110°25'0 0.0
2018-Jun-15 22:29N 21°10' E 110°25'0 0.0
2018-Jun-15 21:59N 21°10' E 110°25'0 0.0
2018-Jun-15 21:29N 21°10' E 110°25'0 0.0
2018-Jun-15 20:59N 21°10' E 110°25'0 0.0
2018-Jun-15 20:29N 21°10' E 110°25'0 0.0
2018-Jun-15 19:59N 21°10' E 110°25'0 0.0
2018-Jun-15 19:29N 21°10' E 110°25'0 0.0
2018-Jun-15 18:58N 21°10' E 110°25'0 0.0
2018-Jun-15 18:28N 21°10' E 110°25'0 0.0
2018-Jun-15 17:49N 21°10' E 110°25'0 0.0
2018-Jun-15 17:28N 21°10' E 110°25'0 0.0
2018-Jun-15 16:58N 21°10' E 110°25'0 0.0
2018-Jun-15 16:28N 21°10' E 110°25'0 0.0
2018-Jun-15 15:58N 21°10' E 110°25'0 0.0
2018-Jun-15 15:28N 21°10' E 110°25'0 0.0
2018-Jun-15 14:55N 21°10' E 110°25'0 0.0
2018-Jun-15 14:28N 21°10' E 110°25'0 0.0
2018-Jun-15 13:58N 21°10' E 110°25'0 0.0
2018-Jun-15 13:28N 21°10' E 110°25'0 0.0
2018-Jun-15 12:58N 21°10' E 110°25'0 0.0
2018-Jun-15 12:28N 21°10' E 110°25'0 0.0
2018-Jun-15 11:52N 21°10' E 110°25'0 0.0
2018-Jun-15 11:28N 21°10' E 110°25'0 0.0
2018-Jun-15 10:58N 21°10' E 110°25'0 0.0
2018-Jun-15 10:28N 21°10' E 110°25'0 0.0
2018-Jun-15 09:58N 21°10' E 110°25'0 0.0
2018-Jun-15 09:28N 21°10' E 110°25'0 0.0
2018-Jun-15 08:58N 21°10' E 110°25'0 0.0
2018-Jun-15 08:28N 21°10' E 110°25'0 0.0
2018-Jun-15 07:58N 21°10' E 110°25'0 0.0
2018-Jun-15 07:25N 21°10' E 110°25'0 0.0
2018-Jun-15 06:58N 21°10' E 110°25'0 0.0
2018-Jun-15 06:25N 21°10' E 110°25'0 0.0
2018-Jun-15 05:58N 21°10' E 110°25'0 0.0
2018-Jun-15 05:28N 21°10' E 110°25'0 0.0
2018-Jun-15 04:58N 21°10' E 110°25'0 0.0
2018-Jun-15 04:28N 21°10' E 110°25'0 0.0
2018-Jun-15 03:55N 21°10' E 110°25'0 0.0
2018-Jun-15 03:28N 21°10' E 110°25'0 0.0
2018-Jun-15 02:58N 21°10' E 110°25'0 0.0
2018-Jun-15 02:28N 21°10' E 110°25'0 0.0
2018-Jun-15 01:49N 21°10' E 110°25'0 0.0
2018-Jun-15 01:22N 21°10' E 110°25'0 0.0
2018-Jun-15 00:58N 21°10' E 110°25'0 0.0
2018-Jun-15 00:28N 21°10' E 110°25'0 0.0
2018-Jun-14 23:58N 21°10' E 110°25'0 0.0
2018-Jun-14 23:28N 21°10' E 110°25'0 0.0
2018-Jun-14 22:58N 21°10' E 110°25'0 0.0
2018-Jun-14 22:28N 21°10' E 110°25'0 0.0
2018-Jun-14 21:58N 21°10' E 110°25'0 0.0
2018-Jun-14 21:25N 21°10' E 110°25'0 0.0
2018-Jun-14 20:58N 21°10' E 110°25'0 0.0
2018-Jun-14 20:28N 21°10' E 110°25'0 0.0
2018-Jun-14 19:58N 21°10' E 110°25'0 0.0
2018-Jun-14 19:25N 21°10' E 110°25'0 0.0
2018-Jun-14 18:58N 21°10' E 110°25'0 0.0
2018-Jun-14 18:28N 21°10' E 110°25'0 0.0
2018-Jun-14 17:58N 21°10' E 110°25'0 0.0
2018-Jun-14 17:28N 21°10' E 110°25'0 0.0
2018-Jun-14 16:58N 21°10' E 110°25'0 0.0
2018-Jun-14 16:28N 21°10' E 110°25'0 0.0
2018-Jun-14 15:55N 21°10' E 110°25'0 0.0
2018-Jun-14 15:25N 21°10' E 110°25'0 0.0
2018-Jun-14 14:58N 21°10' E 110°25'0 0.0
2018-Jun-14 14:28N 21°10' E 110°25'0 0.0
2018-Jun-14 13:58N 21°10' E 110°25'0 0.0
2018-Jun-14 13:28N 21°10' E 110°25'0 0.0
2018-Jun-14 12:58N 21°10' E 110°25'0 0.0
2018-Jun-14 12:28N 21°10' E 110°25'0 0.0
2018-Jun-14 11:55N 21°10' E 110°25'0 0.0
2018-Jun-14 11:25N 21°10' E 110°25'0 0.0
2018-Jun-14 10:58N 21°10' E 110°25'0 0.0
2018-Jun-14 10:28N 21°10' E 110°25'0 0.0
2018-Jun-14 09:58N 21°10' E 110°25'0 0.0
2018-Jun-14 09:28N 21°10' E 110°25'0 0.0
2018-Jun-14 08:55N 21°10' E 110°25'0 0.0
2018-Jun-14 08:28N 21°10' E 110°25'0 0.0
2018-Jun-14 07:58N 21°10' E 110°25'0 0.0
2018-Jun-14 07:31N 21°10' E 110°25'0 0.0
2018-Jun-14 06:57N 21°10' E 110°25'0 0.0
2018-Jun-14 00:30N 21°10' E 110°25'0 0.0
2018-Jun-14 00:00N 21°10' E 110°25'0 0.0
2018-Jun-13 23:30N 21°10' E 110°25'0 0.0
2018-Jun-13 23:00N 21°10' E 110°25'0 0.0
2018-Jun-13 22:30N 21°10' E 110°25'0 0.0
2018-Jun-13 22:00N 21°10' E 110°25'0 0.0
2018-Jun-13 21:30N 21°10' E 110°25'0 0.0
2018-Jun-13 20:57N 21°10' E 110°25'0 0.0
2018-Jun-13 20:27N 21°10' E 110°25'0 0.0
2018-Jun-13 20:00N 21°10' E 110°25'0 0.0
2018-Jun-13 19:30N 21°10' E 110°25'0 0.0
2018-Jun-13 18:54N 21°10' E 110°25'0 0.0
2018-Jun-13 18:30N 21°10' E 110°25'0 0.0
2018-Jun-13 17:54N 21°10' E 110°25'0 0.0
2018-Jun-13 17:30N 21°10' E 110°25'0 0.0
2018-Jun-13 17:00N 21°10' E 110°25'0 0.0
2018-Jun-13 16:30N 21°10' E 110°25'0 0.0
2018-Jun-13 15:57N 21°10' E 110°25'0 0.0
2018-Jun-13 15:30N 21°10' E 110°25'0 0.0
2018-Jun-13 15:00N 21°10' E 110°25'0 0.0
2018-Jun-13 14:24N 21°10' E 110°25'0 0.0
2018-Jun-13 14:00N 21°10' E 110°25'0 0.0
2018-Jun-13 13:30N 21°10' E 110°25'0 0.0
2018-Jun-13 13:00N 21°10' E 110°25'0 0.0
2018-Jun-13 12:24N 21°10' E 110°25'0 0.0
2018-Jun-13 12:00N 21°10' E 110°25'0 0.0
2018-Jun-13 11:27N 21°10' E 110°25'0 0.0
2018-Jun-13 11:00N 21°10' E 110°25'  
Track history (hours):
 
Tides and Currents Weather Stations Pressure Air Temp Water Temp Dewpoint Dewpoint Depression Visibility Wind Speed Wind Dir Waves Ship Positions

Ocean Eagle

Last reported at 2018-Jun-23 10:34 UTC. Time now 2018-Jul-20 12:36 UTC.
Position N 01°29' E 103°10'.
Warning: this ship's position is 27 days out of date.

Length 225 m; draft 8.6 m.

Type: Cargo ship. MMSI: 538004221.

Date/timePositionNaut miles runAvg speedWind from/ knotsBaromVisibWave heightAir tempDewpointWater temp
2018-Jun-23 10:34N 01°29' E 103°10'411.8
2018-Jun-23 10:13N 01°26' E 103°13'612.2
2018-Jun-23 09:43N 01°21' E 103°18'312.1
2018-Jun-23 09:30N 01°19' E 103°20'712.7
2018-Jun-23 08:58N 01°15' E 103°25'612.9
2018-Jun-23 08:30N 01°13' E 103°30'612.7
2018-Jun-23 08:00N 01°12' E 103°37'612.5
2018-Jun-23 07:30N 01°09' E 103°42'611.4
2018-Jun-23 07:00N 01°10' E 103°48'612.1
2018-Jun-23 06:30N 01°13' E 103°53'5 9.8
2018-Jun-23 05:59N 01°16' E 103°58'1 1.7
2018-Jun-23 05:27N 01°17' E 103°58'0 0.1
2018-Jun-23 04:45N 01°17' E 103°58'0 0.2
2018-Jun-23 04:27N 01°17' E 103°58'0 0.0
2018-Jun-23 03:46N 01°17' E 103°58'0 0.2
2018-Jun-23 03:28N 01°17' E 103°58'0 0.1
2018-Jun-23 03:00N 01°17' E 103°58'0 0.1
2018-Jun-23 02:27N 01°17' E 103°58'0 0.1
2018-Jun-23 01:55N 01°17' E 103°58'0 0.1
2018-Jun-23 01:24N 01°17' E 103°58'0 0.1
2018-Jun-23 00:39N 01°17' E 103°58'0 0.0
2018-Jun-23 00:30N 01°17' E 103°58'0 0.0
2018-Jun-23 00:00N 01°17' E 103°58'0 0.1
2018-Jun-22 23:30N 01°17' E 103°58'0 0.0
2018-Jun-22 23:00N 01°17' E 103°58'0 0.1
2018-Jun-22 22:30N 01°17' E 103°58'0 0.1
2018-Jun-22 22:00N 01°17' E 103°58'0 0.0
2018-Jun-22 21:25N 01°17' E 103°58'0 0.0
2018-Jun-22 20:55N 01°17' E 103°58'0 0.1
2018-Jun-22 20:27N 01°17' E 103°58'0 0.0
2018-Jun-22 19:57N 01°17' E 103°58'0 0.1
2018-Jun-22 19:25N 01°17' E 103°58'0 0.1
2018-Jun-22 18:57N 01°17' E 103°58'0 0.1
2018-Jun-22 18:30N 01°17' E 103°58'0 0.1
2018-Jun-22 17:46N 01°17' E 103°58'0 0.3
2018-Jun-22 17:19N 01°16' E 103°58'0 0.4
2018-Jun-22 16:59N 01°16' E 103°58'1 1.4
2018-Jun-22 16:28N 01°16' E 103°59'1 2.1
2018-Jun-22 16:00N 01°16' E 103°60'2 4.8
2018-Jun-22 15:30N 01°16' E 104°02'3 5.2
2018-Jun-22 14:59N 01°16' E 104°05'2 4.9
2018-Jun-22 14:30N 01°17' E 104°07'4 6.8
2018-Jun-22 13:59N 01°17' E 104°10'3 6.8
2018-Jun-22 13:30N 01°18' E 104°14'4 8.1
2018-Jun-22 13:00N 01°19' E 104°18'612.0
2018-Jun-22 12:30N 01°22' E 104°23'712.1
2018-Jun-22 11:56N 01°26' E 104°28'  
2018-Jun-17 18:14N 20°57' E 110°50'312.0
2018-Jun-17 18:00N 20°59' E 110°49'610.8
2018-Jun-17 17:29N 21°02' E 110°44'510.7
2018-Jun-17 17:00N 21°03' E 110°38'5 9.7
2018-Jun-17 16:30N 21°04' E 110°33'4 8.6
2018-Jun-17 16:00N 21°05' E 110°29'3 6.4
2018-Jun-17 15:30N 21°07' E 110°26'4 8.0
2018-Jun-17 15:00N 21°10' E 110°25'0 0.3
2018-Jun-17 14:30N 21°10' E 110°25'0 0.0
2018-Jun-17 13:57N 21°10' E 110°25'0 0.0
2018-Jun-17 13:30N 21°10' E 110°25'0 0.0
2018-Jun-17 13:00N 21°10' E 110°25'0 0.0
2018-Jun-17 12:30N 21°10' E 110°25'0 0.0
2018-Jun-17 12:00N 21°10' E 110°25'0 0.0
2018-Jun-17 11:30N 21°10' E 110°25'0 0.0
2018-Jun-17 11:00N 21°10' E 110°25'0 0.0
2018-Jun-17 10:30N 21°10' E 110°25'0 0.0
2018-Jun-17 10:00N 21°10' E 110°25'0 0.0
2018-Jun-17 09:30N 21°10' E 110°25'0 0.0
2018-Jun-17 09:00N 21°10' E 110°25'0 0.0
2018-Jun-17 08:30N 21°10' E 110°25'0 0.0
2018-Jun-17 07:57N 21°10' E 110°25'0 0.0
2018-Jun-17 07:30N 21°10' E 110°25'0 0.0
2018-Jun-17 06:59N 21°10' E 110°25'0 0.0
2018-Jun-17 06:29N 21°10' E 110°25'0 0.0
2018-Jun-17 05:59N 21°10' E 110°25'0 0.0
2018-Jun-17 05:29N 21°10' E 110°25'0 0.0
2018-Jun-17 04:56N 21°10' E 110°25'0 0.0
2018-Jun-17 04:29N 21°10' E 110°25'0 0.0
2018-Jun-17 03:53N 21°10' E 110°25'0 0.0
2018-Jun-17 03:29N 21°10' E 110°25'0 0.0
2018-Jun-17 02:50N 21°10' E 110°25'0 0.0
2018-Jun-17 02:29N 21°10' E 110°25'0 0.0
2018-Jun-17 01:59N 21°10' E 110°25'0 0.0
2018-Jun-17 01:29N 21°10' E 110°25'0 0.0
2018-Jun-17 00:59N 21°10' E 110°25'0 0.0
2018-Jun-17 00:26N 21°10' E 110°25'0 0.0
2018-Jun-16 23:53N 21°10' E 110°25'0 0.0
2018-Jun-16 23:29N 21°10' E 110°25'0 0.0
2018-Jun-16 22:59N 21°10' E 110°25'0 0.0
2018-Jun-16 22:26N 21°10' E 110°25'0 0.0
2018-Jun-16 21:59N 21°10' E 110°25'0 0.0
2018-Jun-16 21:29N 21°10' E 110°25'0 0.0
2018-Jun-16 20:59N 21°10' E 110°25'0 0.0
2018-Jun-16 20:29N 21°10' E 110°25'0 0.0
2018-Jun-16 19:59N 21°10' E 110°25'0 0.0
2018-Jun-16 19:29N 21°10' E 110°25'0 0.0
2018-Jun-16 18:59N 21°10' E 110°25'0 0.0
2018-Jun-16 18:23N 21°10' E 110°25'0 0.0
2018-Jun-16 17:56N 21°10' E 110°25'0 0.0
2018-Jun-16 17:29N 21°10' E 110°25'0 0.0
2018-Jun-16 16:59N 21°10' E 110°25'0 0.0
2018-Jun-16 16:26N 21°10' E 110°25'0 0.0
2018-Jun-16 15:59N 21°10' E 110°25'0 0.0
2018-Jun-16 15:29N 21°10' E 110°25'0 0.0
2018-Jun-16 14:56N 21°10' E 110°25'0 0.0
2018-Jun-16 14:29N 21°10' E 110°25'0 0.0
2018-Jun-16 13:59N 21°10' E 110°25'0 0.0
2018-Jun-16 13:26N 21°10' E 110°25'0 0.0
2018-Jun-16 12:59N 21°10' E 110°25'0 0.0
2018-Jun-16 12:29N 21°10' E 110°25'0 0.0
2018-Jun-16 11:59N 21°10' E 110°25'0 0.0
2018-Jun-16 11:26N 21°10' E 110°25'0 0.0
2018-Jun-16 10:59N 21°10' E 110°25'0 0.0
2018-Jun-16 10:29N 21°10' E 110°25'0 0.0
2018-Jun-16 09:59N 21°10' E 110°25'0 0.0
2018-Jun-16 09:29N 21°10' E 110°25'0 0.0
2018-Jun-16 08:59N 21°10' E 110°25'0 0.0
2018-Jun-16 08:17N 21°10' E 110°25'0 0.0
2018-Jun-16 07:59N 21°10' E 110°25'0 0.0
2018-Jun-16 07:29N 21°10' E 110°25'0 0.0
2018-Jun-16 06:59N 21°10' E 110°25'0 0.0
2018-Jun-16 06:29N 21°10' E 110°25'0 0.0
2018-Jun-16 05:59N 21°10' E 110°25'0 0.0
2018-Jun-16 05:29N 21°10' E 110°25'0 0.0
2018-Jun-16 04:59N 21°10' E 110°25'0 0.0
2018-Jun-16 04:29N 21°10' E 110°25'0 0.0
2018-Jun-16 03:56N 21°10' E 110°25'0 0.0
2018-Jun-16 03:26N 21°10' E 110°25'0 0.0
2018-Jun-16 02:56N 21°10' E 110°25'0 0.0
2018-Jun-16 02:26N 21°10' E 110°25'0 0.0
2018-Jun-16 01:56N 21°10' E 110°25'0 0.0
2018-Jun-16 01:29N 21°10' E 110°25'0 0.0
2018-Jun-16 00:59N 21°10' E 110°25'0 0.0
2018-Jun-16 00:29N 21°10' E 110°25'0 0.0
2018-Jun-15 23:53N 21°10' E 110°25'0 0.0
2018-Jun-15 23:26N 21°10' E 110°25'0 0.0
2018-Jun-15 22:59N 21°10' E 110°25'0 0.0
2018-Jun-15 22:29N 21°10' E 110°25'0 0.0
2018-Jun-15 21:59N 21°10' E 110°25'0 0.0
2018-Jun-15 21:29N 21°10' E 110°25'0 0.0
2018-Jun-15 20:59N 21°10' E 110°25'0 0.0
2018-Jun-15 20:29N 21°10' E 110°25'0 0.0
2018-Jun-15 19:59N 21°10' E 110°25'0 0.0
2018-Jun-15 19:29N 21°10' E 110°25'0 0.0
2018-Jun-15 18:58N 21°10' E 110°25'0 0.0
2018-Jun-15 18:28N 21°10' E 110°25'0 0.0
2018-Jun-15 17:49N 21°10' E 110°25'0 0.0
2018-Jun-15 17:28N 21°10' E 110°25'0 0.0
2018-Jun-15 16:58N 21°10' E 110°25'0 0.0
2018-Jun-15 16:28N 21°10' E 110°25'0 0.0
2018-Jun-15 15:58N 21°10' E 110°25'0 0.0
2018-Jun-15 15:28N 21°10' E 110°25'0 0.0
2018-Jun-15 14:55N 21°10' E 110°25'0 0.0
2018-Jun-15 14:28N 21°10' E 110°25'0 0.0
2018-Jun-15 13:58N 21°10' E 110°25'0 0.0
2018-Jun-15 13:28N 21°10' E 110°25'0 0.0
2018-Jun-15 12:58N 21°10' E 110°25'0 0.0
2018-Jun-15 12:28N 21°10' E 110°25'0 0.0
2018-Jun-15 11:52N 21°10' E 110°25'0 0.0
2018-Jun-15 11:28N 21°10' E 110°25'0 0.0
2018-Jun-15 10:58N 21°10' E 110°25'0 0.0
2018-Jun-15 10:28N 21°10' E 110°25'0 0.0
2018-Jun-15 09:58N 21°10' E 110°25'0 0.0
2018-Jun-15 09:28N 21°10' E 110°25'0 0.0
2018-Jun-15 08:58N 21°10' E 110°25'0 0.0
2018-Jun-15 08:28N 21°10' E 110°25'0 0.0
2018-Jun-15 07:58N 21°10' E 110°25'0 0.0
2018-Jun-15 07:25N 21°10' E 110°25'0 0.0
2018-Jun-15 06:58N 21°10' E 110°25'0 0.0
2018-Jun-15 06:25N 21°10' E 110°25'0 0.0
2018-Jun-15 05:58N 21°10' E 110°25'0 0.0
2018-Jun-15 05:28N 21°10' E 110°25'0 0.0
2018-Jun-15 04:58N 21°10' E 110°25'0 0.0
2018-Jun-15 04:28N 21°10' E 110°25'0 0.0
2018-Jun-15 03:55N 21°10' E 110°25'0 0.0
2018-Jun-15 03:28N 21°10' E 110°25'0 0.0
2018-Jun-15 02:58N 21°10' E 110°25'0 0.0
2018-Jun-15 02:28N 21°10' E 110°25'0 0.0
2018-Jun-15 01:49N 21°10' E 110°25'0 0.0
2018-Jun-15 01:22N 21°10' E 110°25'0 0.0
2018-Jun-15 00:58N 21°10' E 110°25'0 0.0
2018-Jun-15 00:28N 21°10' E 110°25'0 0.0
2018-Jun-14 23:58N 21°10' E 110°25'0 0.0
2018-Jun-14 23:28N 21°10' E 110°25'0 0.0
2018-Jun-14 22:58N 21°10' E 110°25'0 0.0
2018-Jun-14 22:28N 21°10' E 110°25'0 0.0
2018-Jun-14 21:58N 21°10' E 110°25'0 0.0
2018-Jun-14 21:25N 21°10' E 110°25'0 0.0
2018-Jun-14 20:58N 21°10' E 110°25'0 0.0
2018-Jun-14 20:28N 21°10' E 110°25'0 0.0
2018-Jun-14 19:58N 21°10' E 110°25'0 0.0
2018-Jun-14 19:25N 21°10' E 110°25'0 0.0
2018-Jun-14 18:58N 21°10' E 110°25'0 0.0
2018-Jun-14 18:28N 21°10' E 110°25'0 0.0
2018-Jun-14 17:58N 21°10' E 110°25'0 0.0
2018-Jun-14 17:28N 21°10' E 110°25'0 0.0
2018-Jun-14 16:58N 21°10' E 110°25'0 0.0
2018-Jun-14 16:28N 21°10' E 110°25'0 0.0
2018-Jun-14 15:55N 21°10' E 110°25'0 0.0
2018-Jun-14 15:25N 21°10' E 110°25'0 0.0
2018-Jun-14 14:58N 21°10' E 110°25'0 0.0
2018-Jun-14 14:28N 21°10' E 110°25'0 0.0
2018-Jun-14 13:58N 21°10' E 110°25'0 0.0
2018-Jun-14 13:28N 21°10' E 110°25'0 0.0
2018-Jun-14 12:58N 21°10' E 110°25'0 0.0
2018-Jun-14 12:28N 21°10' E 110°25'0 0.0
2018-Jun-14 11:55N 21°10' E 110°25'0 0.0
2018-Jun-14 11:25N 21°10' E 110°25'0 0.0
2018-Jun-14 10:58N 21°10' E 110°25'0 0.0
2018-Jun-14 10:28N 21°10' E 110°25'0 0.0
2018-Jun-14 09:58N 21°10' E 110°25'0 0.0
2018-Jun-14 09:28N 21°10' E 110°25'0 0.0
2018-Jun-14 08:55N 21°10' E 110°25'0 0.0
2018-Jun-14 08:28N 21°10' E 110°25'0 0.0
2018-Jun-14 07:58N 21°10' E 110°25'0 0.0
2018-Jun-14 07:31N 21°10' E 110°25'0 0.0
2018-Jun-14 06:57N 21°10' E 110°25'0 0.0
2018-Jun-14 00:30N 21°10' E 110°25'0 0.0
2018-Jun-14 00:00N 21°10' E 110°25'0 0.0
2018-Jun-13 23:30N 21°10' E 110°25'0 0.0
2018-Jun-13 23:00N 21°10' E 110°25'0 0.0
2018-Jun-13 22:30N 21°10' E 110°25'0 0.0
2018-Jun-13 22:00N 21°10' E 110°25'0 0.0
2018-Jun-13 21:30N 21°10' E 110°25'0 0.0
2018-Jun-13 20:57N 21°10' E 110°25'0 0.0
2018-Jun-13 20:27N 21°10' E 110°25'0 0.0
2018-Jun-13 20:00N 21°10' E 110°25'0 0.0
2018-Jun-13 19:30N 21°10' E 110°25'0 0.0
2018-Jun-13 18:54N 21°10' E 110°25'0 0.0
2018-Jun-13 18:30N 21°10' E 110°25'0 0.0
2018-Jun-13 17:54N 21°10' E 110°25'0 0.0
2018-Jun-13 17:30N 21°10' E 110°25'0 0.0
2018-Jun-13 17:00N 21°10' E 110°25'0 0.0
2018-Jun-13 16:30N 21°10' E 110°25'0 0.0
2018-Jun-13 15:57N 21°10' E 110°25'0 0.0
2018-Jun-13 15:30N 21°10' E 110°25'0 0.0
2018-Jun-13 15:00N 21°10' E 110°25'0 0.0
2018-Jun-13 14:24N 21°10' E 110°25'0 0.0
2018-Jun-13 14:00N 21°10' E 110°25'0 0.0
2018-Jun-13 13:30N 21°10' E 110°25'0 0.0
2018-Jun-13 13:00N 21°10' E 110°25'0 0.0
2018-Jun-13 12:24N 21°10' E 110°25'0 0.0
2018-Jun-13 12:00N 21°10' E 110°25'0 0.0
2018-Jun-13 11:27N 21°10' E 110°25'0 0.0
2018-Jun-13 11:00N 21°10' E 110°25'  

Dump ship's entire track history